<?xml version="1.0" encoding="UTF-8" standalone="no" ?>
<gpx xmlns="http://www.topografix.com/GPX/1/1" xmlns:xsi="http://www.w3.org/2001/XMLSchema-instance" xsi:schemaLocation="http://www.topografix.com/GPX/1/1 http://www.topografix.com/GPX/1/1/gpx.xsd" version="1.1" creator="VisuGPX - https://www.visugpx.com">
  <metadata>
    <name>Lavoirs St Loubès</name>
  </metadata>
  <wpt lat="44.91801" lon="-0.42913">
    <ele>21.8</ele>
    <name><![CDATA[001]]></name>
    <desc><![CDATA[16-SEP-10 13:15:51]]></desc>
  </wpt>
  <wpt lat="44.90465" lon="-0.44133">
    <ele>26.7</ele>
    <name><![CDATA[Lavoir 1]]></name>
    <desc><![CDATA[16-SEP-10 14:27:56]]></desc>
  </wpt>
  <wpt lat="44.89755" lon="-0.42733">
    <ele>23.6</ele>
    <name><![CDATA[Lavoir 2]]></name>
    <desc><![CDATA[16-SEP-10 14:52:27]]></desc>
  </wpt>
  <trk>
    <name><![CDATA[ACTIVE LOG 002]]></name>
    <extensions>
      <line xmlns="http://www.topografix.com/GPX/gpx_style/0/2">
        <color>0000FF</color>
        <width>4</width>
      </line>
    </extensions>
    <trkseg>
      <trkpt lat="44.91804" lon="-0.42907">
        <ele>11.192505</ele>
        <time>2010-09-16T11:15:34Z</time>
      </trkpt>
      <trkpt lat="44.91789" lon="-0.42917">
        <ele>15.999023</ele>
        <time>2010-09-16T11:16:35Z</time>
      </trkpt>
      <trkpt lat="44.91769" lon="-0.4293">
        <ele>16.479736</ele>
        <time>2010-09-16T11:17:03Z</time>
      </trkpt>
      <trkpt lat="44.91764" lon="-0.42943">
        <ele>16.960449</ele>
        <time>2010-09-16T11:17:55Z</time>
      </trkpt>
      <trkpt lat="44.91765" lon="-0.42932">
        <ele>16.479736</ele>
        <time>2010-09-16T11:18:55Z</time>
      </trkpt>
      <trkpt lat="44.91802" lon="-0.42911">
        <ele>15.518433</ele>
        <time>2010-09-16T11:25:28Z</time>
      </trkpt>
      <trkpt lat="44.91792" lon="-0.42912">
        <ele>17.921753</ele>
        <time>2010-09-16T11:30:19Z</time>
      </trkpt>
      <trkpt lat="44.91756" lon="-0.43013">
        <ele>16.479736</ele>
        <time>2010-09-16T11:35:00Z</time>
      </trkpt>
      <trkpt lat="44.91723" lon="-0.43027">
        <ele>19.84436</ele>
        <time>2010-09-16T11:35:27Z</time>
      </trkpt>
      <trkpt lat="44.91687" lon="-0.43062">
        <ele>16.960449</ele>
        <time>2010-09-16T11:36:05Z</time>
      </trkpt>
      <trkpt lat="44.9164" lon="-0.43118">
        <ele>19.84436</ele>
        <time>2010-09-16T11:36:52Z</time>
      </trkpt>
      <trkpt lat="44.91605" lon="-0.43179">
        <ele>18.883057</ele>
        <time>2010-09-16T11:37:36Z</time>
      </trkpt>
      <trkpt lat="44.91476" lon="-0.43301">
        <ele>18.402344</ele>
        <time>2010-09-16T11:39:38Z</time>
      </trkpt>
      <trkpt lat="44.91441" lon="-0.43345">
        <ele>15.518433</ele>
        <time>2010-09-16T11:40:17Z</time>
      </trkpt>
      <trkpt lat="44.91293" lon="-0.4345">
        <ele>17.441162</ele>
        <time>2010-09-16T11:42:28Z</time>
      </trkpt>
      <trkpt lat="44.91269" lon="-0.43477">
        <ele>14.557007</ele>
        <time>2010-09-16T11:42:52Z</time>
      </trkpt>
      <trkpt lat="44.91271" lon="-0.4358">
        <ele>11.673218</ele>
        <time>2010-09-16T11:43:56Z</time>
      </trkpt>
      <trkpt lat="44.91305" lon="-0.43718">
        <ele>16.479736</ele>
        <time>2010-09-16T11:45:38Z</time>
      </trkpt>
      <trkpt lat="44.9135" lon="-0.43897">
        <ele>18.883057</ele>
        <time>2010-09-16T11:47:21Z</time>
      </trkpt>
      <trkpt lat="44.91399" lon="-0.44079">
        <ele>19.36377</ele>
        <time>2010-09-16T11:49:10Z</time>
      </trkpt>
      <trkpt lat="44.91418" lon="-0.44111">
        <ele>19.84436</ele>
        <time>2010-09-16T11:50:01Z</time>
      </trkpt>
      <trkpt lat="44.91415" lon="-0.44173">
        <ele>20.324951</ele>
        <time>2010-09-16T11:50:41Z</time>
      </trkpt>
      <trkpt lat="44.91456" lon="-0.44313">
        <ele>22.247559</ele>
        <time>2010-09-16T11:52:08Z</time>
      </trkpt>
      <trkpt lat="44.91478" lon="-0.44402">
        <ele>21.286377</ele>
        <time>2010-09-16T11:53:12Z</time>
      </trkpt>
      <trkpt lat="44.91258" lon="-0.44581">
        <ele>24.651001</ele>
        <time>2010-09-16T11:56:38Z</time>
      </trkpt>
      <trkpt lat="44.9123" lon="-0.44622">
        <ele>22.728271</ele>
        <time>2010-09-16T11:57:10Z</time>
      </trkpt>
      <trkpt lat="44.912" lon="-0.44641">
        <ele>24.170288</ele>
        <time>2010-09-16T11:57:37Z</time>
      </trkpt>
      <trkpt lat="44.91196" lon="-0.44644">
        <ele>22.247559</ele>
        <time>2010-09-16T11:57:41Z</time>
      </trkpt>
      <trkpt lat="44.91163" lon="-0.44646">
        <ele>23.208984</ele>
        <time>2010-09-16T11:58:05Z</time>
      </trkpt>
      <trkpt lat="44.91125" lon="-0.44597">
        <ele>18.883057</ele>
        <time>2010-09-16T11:58:48Z</time>
      </trkpt>
      <trkpt lat="44.91022" lon="-0.44616">
        <ele>16.960449</ele>
        <time>2010-09-16T12:00:22Z</time>
      </trkpt>
      <trkpt lat="44.91012" lon="-0.44717">
        <ele>19.84436</ele>
        <time>2010-09-16T12:01:59Z</time>
      </trkpt>
      <trkpt lat="44.91019" lon="-0.448">
        <ele>18.883057</ele>
        <time>2010-09-16T12:02:47Z</time>
      </trkpt>
      <trkpt lat="44.90992" lon="-0.44905">
        <ele>20.805664</ele>
        <time>2010-09-16T12:03:53Z</time>
      </trkpt>
      <trkpt lat="44.9097" lon="-0.44933">
        <ele>20.324951</ele>
        <time>2010-09-16T12:04:16Z</time>
      </trkpt>
      <trkpt lat="44.90924" lon="-0.44953">
        <ele>23.689575</ele>
        <time>2010-09-16T12:04:59Z</time>
      </trkpt>
      <trkpt lat="44.9088" lon="-0.44978">
        <ele>24.170288</ele>
        <time>2010-09-16T12:05:38Z</time>
      </trkpt>
      <trkpt lat="44.90857" lon="-0.45019">
        <ele>25.612305</ele>
        <time>2010-09-16T12:06:42Z</time>
      </trkpt>
      <trkpt lat="44.90846" lon="-0.44994">
        <ele>28.976929</ele>
        <time>2010-09-16T12:15:09Z</time>
      </trkpt>
      <trkpt lat="44.90822" lon="-0.44925">
        <ele>25.612305</ele>
        <time>2010-09-16T12:16:06Z</time>
      </trkpt>
      <trkpt lat="44.90818" lon="-0.44921">
        <ele>23.689575</ele>
        <time>2010-09-16T12:16:10Z</time>
      </trkpt>
      <trkpt lat="44.90748" lon="-0.44912">
        <ele>25.131714</ele>
        <time>2010-09-16T12:17:11Z</time>
      </trkpt>
      <trkpt lat="44.90719" lon="-0.44819">
        <ele>25.131714</ele>
        <time>2010-09-16T12:18:13Z</time>
      </trkpt>
      <trkpt lat="44.90722" lon="-0.44782">
        <ele>28.496216</ele>
        <time>2010-09-16T12:18:36Z</time>
      </trkpt>
      <trkpt lat="44.90722" lon="-0.4478">
        <ele>28.496216</ele>
        <time>2010-09-16T12:18:37Z</time>
      </trkpt>
      <trkpt lat="44.90728" lon="-0.44725">
        <ele>25.131714</ele>
        <time>2010-09-16T12:19:10Z</time>
      </trkpt>
      <trkpt lat="44.90698" lon="-0.44652">
        <ele>24.651001</ele>
        <time>2010-09-16T12:20:02Z</time>
      </trkpt>
      <trkpt lat="44.90681" lon="-0.4463">
        <ele>26.573608</ele>
        <time>2010-09-16T12:20:21Z</time>
      </trkpt>
      <trkpt lat="44.90664" lon="-0.44625">
        <ele>25.131714</ele>
        <time>2010-09-16T12:20:36Z</time>
      </trkpt>
      <trkpt lat="44.90618" lon="-0.44634">
        <ele>25.131714</ele>
        <time>2010-09-16T12:21:20Z</time>
      </trkpt>
      <trkpt lat="44.90599" lon="-0.44596">
        <ele>26.573608</ele>
        <time>2010-09-16T12:21:52Z</time>
      </trkpt>
      <trkpt lat="44.90562" lon="-0.4452">
        <ele>24.170288</ele>
        <time>2010-09-16T12:22:44Z</time>
      </trkpt>
      <trkpt lat="44.90492" lon="-0.44202">
        <ele>23.689575</ele>
        <time>2010-09-16T12:26:06Z</time>
      </trkpt>
      <trkpt lat="44.90489" lon="-0.44167">
        <ele>21.286377</ele>
        <time>2010-09-16T12:26:27Z</time>
      </trkpt>
      <trkpt lat="44.90465" lon="-0.44133">
        <ele>22.728271</ele>
        <time>2010-09-16T12:28:16Z</time>
      </trkpt>
      <trkpt lat="44.90416" lon="-0.43774">
        <ele>25.612305</ele>
        <time>2010-09-16T12:32:03Z</time>
      </trkpt>
      <trkpt lat="44.90416" lon="-0.4377">
        <ele>23.208984</ele>
        <time>2010-09-16T12:32:05Z</time>
      </trkpt>
      <trkpt lat="44.90393" lon="-0.43722">
        <ele>26.573608</ele>
        <time>2010-09-16T12:32:37Z</time>
      </trkpt>
      <trkpt lat="44.90306" lon="-0.43455">
        <ele>23.689575</ele>
        <time>2010-09-16T12:39:06Z</time>
      </trkpt>
      <trkpt lat="44.903" lon="-0.4343">
        <ele>24.651001</ele>
        <time>2010-09-16T12:39:21Z</time>
      </trkpt>
      <trkpt lat="44.903" lon="-0.43419">
        <ele>24.170288</ele>
        <time>2010-09-16T12:39:27Z</time>
      </trkpt>
      <trkpt lat="44.90264" lon="-0.43289">
        <ele>25.612305</ele>
        <time>2010-09-16T12:40:47Z</time>
      </trkpt>
      <trkpt lat="44.90248" lon="-0.43201">
        <ele>27.054321</ele>
        <time>2010-09-16T12:41:40Z</time>
      </trkpt>
      <trkpt lat="44.90228" lon="-0.43128">
        <ele>25.131714</ele>
        <time>2010-09-16T12:42:25Z</time>
      </trkpt>
      <trkpt lat="44.90227" lon="-0.43127">
        <ele>27.534912</ele>
        <time>2010-09-16T12:42:26Z</time>
      </trkpt>
      <trkpt lat="44.90212" lon="-0.4311">
        <ele>24.170288</ele>
        <time>2010-09-16T12:42:39Z</time>
      </trkpt>
      <trkpt lat="44.90212" lon="-0.4311">
        <ele>28.496216</ele>
        <time>2010-09-16T12:42:40Z</time>
      </trkpt>
      <trkpt lat="44.90212" lon="-0.43109">
        <ele>26.092896</ele>
        <time>2010-09-16T12:42:41Z</time>
      </trkpt>
      <trkpt lat="44.9018" lon="-0.43085">
        <ele>29.45752</ele>
        <time>2010-09-16T12:43:10Z</time>
      </trkpt>
      <trkpt lat="44.9018" lon="-0.43084">
        <ele>27.054321</ele>
        <time>2010-09-16T12:43:11Z</time>
      </trkpt>
      <trkpt lat="44.90163" lon="-0.43076">
        <ele>27.534912</ele>
        <time>2010-09-16T12:43:24Z</time>
      </trkpt>
      <trkpt lat="44.90086" lon="-0.43001">
        <ele>28.496216</ele>
        <time>2010-09-16T12:45:17Z</time>
      </trkpt>
      <trkpt lat="44.90082" lon="-0.42999">
        <ele>23.689575</ele>
        <time>2010-09-16T12:45:19Z</time>
      </trkpt>
      <trkpt lat="44.90081" lon="-0.42997">
        <ele>28.496216</ele>
        <time>2010-09-16T12:45:20Z</time>
      </trkpt>
      <trkpt lat="44.90078" lon="-0.42994">
        <ele>26.573608</ele>
        <time>2010-09-16T12:45:23Z</time>
      </trkpt>
      <trkpt lat="44.90068" lon="-0.4298">
        <ele>26.092896</ele>
        <time>2010-09-16T12:45:36Z</time>
      </trkpt>
      <trkpt lat="44.90059" lon="-0.42973">
        <ele>26.092896</ele>
        <time>2010-09-16T12:45:47Z</time>
      </trkpt>
      <trkpt lat="44.90035" lon="-0.4294">
        <ele>26.573608</ele>
        <time>2010-09-16T12:46:19Z</time>
      </trkpt>
      <trkpt lat="44.89938" lon="-0.42678">
        <ele>33.783447</ele>
        <time>2010-09-16T12:49:18Z</time>
      </trkpt>
      <trkpt lat="44.89921" lon="-0.42659">
        <ele>32.341553</ele>
        <time>2010-09-16T12:49:39Z</time>
      </trkpt>
      <trkpt lat="44.899" lon="-0.42664">
        <ele>32.341553</ele>
        <time>2010-09-16T12:49:59Z</time>
      </trkpt>
      <trkpt lat="44.89894" lon="-0.42664">
        <ele>31.860718</ele>
        <time>2010-09-16T12:50:03Z</time>
      </trkpt>
      <trkpt lat="44.89868" lon="-0.42673">
        <ele>29.45752</ele>
        <time>2010-09-16T12:50:26Z</time>
      </trkpt>
      <trkpt lat="44.89843" lon="-0.42685">
        <ele>23.689575</ele>
        <time>2010-09-16T12:50:54Z</time>
      </trkpt>
      <trkpt lat="44.89824" lon="-0.42689">
        <ele>21.286377</ele>
        <time>2010-09-16T12:51:11Z</time>
      </trkpt>
      <trkpt lat="44.89776" lon="-0.42732">
        <ele>18.402344</ele>
        <time>2010-09-16T12:52:13Z</time>
      </trkpt>
      <trkpt lat="44.89711" lon="-0.42741">
        <ele>17.441162</ele>
        <time>2010-09-16T12:53:46Z</time>
      </trkpt>
      <trkpt lat="44.89709" lon="-0.42727">
        <ele>16.960449</ele>
        <time>2010-09-16T12:54:11Z</time>
      </trkpt>
      <trkpt lat="44.89704" lon="-0.42751">
        <ele>18.402344</ele>
        <time>2010-09-16T13:00:52Z</time>
      </trkpt>
      <trkpt lat="44.89706" lon="-0.42767">
        <ele>16.960449</ele>
        <time>2010-09-16T13:01:18Z</time>
      </trkpt>
      <trkpt lat="44.89658" lon="-0.42775">
        <ele>18.402344</ele>
        <time>2010-09-16T13:02:07Z</time>
      </trkpt>
      <trkpt lat="44.89653" lon="-0.42884">
        <ele>19.84436</ele>
        <time>2010-09-16T13:03:16Z</time>
      </trkpt>
      <trkpt lat="44.89622" lon="-0.42958">
        <ele>21.286377</ele>
        <time>2010-09-16T13:04:33Z</time>
      </trkpt>
      <trkpt lat="44.89639" lon="-0.42991">
        <ele>20.324951</ele>
        <time>2010-09-16T13:04:54Z</time>
      </trkpt>
      <trkpt lat="44.89618" lon="-0.43082">
        <ele>21.286377</ele>
        <time>2010-09-16T13:05:54Z</time>
      </trkpt>
      <trkpt lat="44.89618" lon="-0.43086">
        <ele>18.883057</ele>
        <time>2010-09-16T13:06:06Z</time>
      </trkpt>
      <trkpt lat="44.89622" lon="-0.43093">
        <ele>25.131714</ele>
        <time>2010-09-16T13:06:38Z</time>
      </trkpt>
      <trkpt lat="44.89628" lon="-0.43099">
        <ele>21.766968</ele>
        <time>2010-09-16T13:07:00Z</time>
      </trkpt>
      <trkpt lat="44.89695" lon="-0.43132">
        <ele>24.170288</ele>
        <time>2010-09-16T13:08:00Z</time>
      </trkpt>
      <trkpt lat="44.89721" lon="-0.43165">
        <ele>27.534912</ele>
        <time>2010-09-16T13:08:28Z</time>
      </trkpt>
      <trkpt lat="44.89727" lon="-0.43227">
        <ele>25.612305</ele>
        <time>2010-09-16T13:09:11Z</time>
      </trkpt>
      <trkpt lat="44.89779" lon="-0.43227">
        <ele>26.092896</ele>
        <time>2010-09-16T13:09:56Z</time>
      </trkpt>
      <trkpt lat="44.8981" lon="-0.43219">
        <ele>24.651001</ele>
        <time>2010-09-16T13:10:54Z</time>
      </trkpt>
      <trkpt lat="44.89813" lon="-0.43217">
        <ele>22.728271</ele>
        <time>2010-09-16T13:11:03Z</time>
      </trkpt>
      <trkpt lat="44.8986" lon="-0.43468">
        <ele>28.015503</ele>
        <time>2010-09-16T13:13:32Z</time>
      </trkpt>
      <trkpt lat="44.8986" lon="-0.43471">
        <ele>26.092896</ele>
        <time>2010-09-16T13:13:34Z</time>
      </trkpt>
      <trkpt lat="44.89857" lon="-0.43544">
        <ele>28.496216</ele>
        <time>2010-09-16T13:14:18Z</time>
      </trkpt>
      <trkpt lat="44.8982" lon="-0.43668">
        <ele>28.496216</ele>
        <time>2010-09-16T13:15:31Z</time>
      </trkpt>
      <trkpt lat="44.89823" lon="-0.43726">
        <ele>28.976929</ele>
        <time>2010-09-16T13:16:04Z</time>
      </trkpt>
      <trkpt lat="44.89778" lon="-0.43769">
        <ele>30.418823</ele>
        <time>2010-09-16T13:16:46Z</time>
      </trkpt>
      <trkpt lat="44.8979" lon="-0.43802">
        <ele>30.418823</ele>
        <time>2010-09-16T13:17:10Z</time>
      </trkpt>
      <trkpt lat="44.89774" lon="-0.43885">
        <ele>31.380127</ele>
        <time>2010-09-16T13:17:55Z</time>
      </trkpt>
      <trkpt lat="44.89773" lon="-0.43898">
        <ele>30.899536</ele>
        <time>2010-09-16T13:18:03Z</time>
      </trkpt>
      <trkpt lat="44.89892" lon="-0.43887">
        <ele>32.822266</ele>
        <time>2010-09-16T13:20:08Z</time>
      </trkpt>
      <trkpt lat="44.8993" lon="-0.43959">
        <ele>31.380127</ele>
        <time>2010-09-16T13:21:17Z</time>
      </trkpt>
      <trkpt lat="44.89818" lon="-0.44109">
        <ele>34.744873</ele>
        <time>2010-09-16T13:23:18Z</time>
      </trkpt>
      <trkpt lat="44.89777" lon="-0.44151">
        <ele>33.783447</ele>
        <time>2010-09-16T13:24:06Z</time>
      </trkpt>
      <trkpt lat="44.89731" lon="-0.4423">
        <ele>33.783447</ele>
        <time>2010-09-16T13:25:06Z</time>
      </trkpt>
      <trkpt lat="44.89627" lon="-0.44336">
        <ele>36.186768</ele>
        <time>2010-09-16T13:27:03Z</time>
      </trkpt>
      <trkpt lat="44.89683" lon="-0.44365">
        <ele>36.186768</ele>
        <time>2010-09-16T13:30:05Z</time>
      </trkpt>
      <trkpt lat="44.89753" lon="-0.44348">
        <ele>33.783447</ele>
        <time>2010-09-16T13:30:57Z</time>
      </trkpt>
      <trkpt lat="44.89868" lon="-0.44276">
        <ele>33.783447</ele>
        <time>2010-09-16T13:32:44Z</time>
      </trkpt>
      <trkpt lat="44.89898" lon="-0.44262">
        <ele>33.302856</ele>
        <time>2010-09-16T13:33:07Z</time>
      </trkpt>
      <trkpt lat="44.89986" lon="-0.44297">
        <ele>34.26416</ele>
        <time>2010-09-16T13:34:24Z</time>
      </trkpt>
      <trkpt lat="44.90121" lon="-0.44365">
        <ele>30.418823</ele>
        <time>2010-09-16T13:36:23Z</time>
      </trkpt>
      <trkpt lat="44.90132" lon="-0.44363">
        <ele>27.534912</ele>
        <time>2010-09-16T13:36:29Z</time>
      </trkpt>
      <trkpt lat="44.90145" lon="-0.44355">
        <ele>30.899536</ele>
        <time>2010-09-16T13:36:40Z</time>
      </trkpt>
      <trkpt lat="44.90147" lon="-0.44354">
        <ele>30.899536</ele>
        <time>2010-09-16T13:36:41Z</time>
      </trkpt>
      <trkpt lat="44.90148" lon="-0.44354">
        <ele>28.015503</ele>
        <time>2010-09-16T13:36:42Z</time>
      </trkpt>
      <trkpt lat="44.90153" lon="-0.44353">
        <ele>28.015503</ele>
        <time>2010-09-16T13:36:46Z</time>
      </trkpt>
      <trkpt lat="44.90174" lon="-0.44337">
        <ele>28.496216</ele>
        <time>2010-09-16T13:37:06Z</time>
      </trkpt>
      <trkpt lat="44.90242" lon="-0.44263">
        <ele>28.496216</ele>
        <time>2010-09-16T13:38:51Z</time>
      </trkpt>
      <trkpt lat="44.90383" lon="-0.44217">
        <ele>24.651001</ele>
        <time>2010-09-16T13:42:26Z</time>
      </trkpt>
      <trkpt lat="44.9043" lon="-0.44183">
        <ele>25.131714</ele>
        <time>2010-09-16T13:43:10Z</time>
      </trkpt>
      <trkpt lat="44.90473" lon="-0.44129">
        <ele>22.728271</ele>
        <time>2010-09-16T13:44:02Z</time>
      </trkpt>
      <trkpt lat="44.90446" lon="-0.44005">
        <ele>23.689575</ele>
        <time>2010-09-16T13:45:53Z</time>
      </trkpt>
      <trkpt lat="44.90508" lon="-0.43961">
        <ele>24.170288</ele>
        <time>2010-09-16T13:46:52Z</time>
      </trkpt>
      <trkpt lat="44.90624" lon="-0.4391">
        <ele>18.883057</ele>
        <time>2010-09-16T13:48:29Z</time>
      </trkpt>
      <trkpt lat="44.90737" lon="-0.43823">
        <ele>16.960449</ele>
        <time>2010-09-16T13:50:17Z</time>
      </trkpt>
      <trkpt lat="44.90743" lon="-0.43824">
        <ele>19.36377</ele>
        <time>2010-09-16T13:50:21Z</time>
      </trkpt>
      <trkpt lat="44.90747" lon="-0.43821">
        <ele>16.960449</ele>
        <time>2010-09-16T13:50:25Z</time>
      </trkpt>
      <trkpt lat="44.90768" lon="-0.43823">
        <ele>16.960449</ele>
        <time>2010-09-16T13:50:44Z</time>
      </trkpt>
      <trkpt lat="44.90797" lon="-0.43831">
        <ele>16.960449</ele>
        <time>2010-09-16T13:51:07Z</time>
      </trkpt>
      <trkpt lat="44.90976" lon="-0.43821">
        <ele>21.286377</ele>
        <time>2010-09-16T13:53:45Z</time>
      </trkpt>
      <trkpt lat="44.90991" lon="-0.43821">
        <ele>18.883057</ele>
        <time>2010-09-16T13:53:59Z</time>
      </trkpt>
      <trkpt lat="44.91084" lon="-0.43842">
        <ele>16.479736</ele>
        <time>2010-09-16T13:55:14Z</time>
      </trkpt>
      <trkpt lat="44.91228" lon="-0.43788">
        <ele>21.766968</ele>
        <time>2010-09-16T13:57:18Z</time>
      </trkpt>
      <trkpt lat="44.91299" lon="-0.4375">
        <ele>19.84436</ele>
        <time>2010-09-16T13:58:27Z</time>
      </trkpt>
      <trkpt lat="44.91301" lon="-0.43731">
        <ele>21.766968</ele>
        <time>2010-09-16T13:59:01Z</time>
      </trkpt>
      <trkpt lat="44.91302" lon="-0.43729">
        <ele>19.36377</ele>
        <time>2010-09-16T13:59:03Z</time>
      </trkpt>
      <trkpt lat="44.91288" lon="-0.43694">
        <ele>18.402344</ele>
        <time>2010-09-16T13:59:49Z</time>
      </trkpt>
      <trkpt lat="44.91294" lon="-0.43685">
        <ele>16.960449</ele>
        <time>2010-09-16T14:00:31Z</time>
      </trkpt>
      <trkpt lat="44.91268" lon="-0.43588">
        <ele>15.03772</ele>
        <time>2010-09-16T14:01:38Z</time>
      </trkpt>
      <trkpt lat="44.91265" lon="-0.43473">
        <ele>17.441162</ele>
        <time>2010-09-16T14:02:48Z</time>
      </trkpt>
      <trkpt lat="44.91285" lon="-0.43454">
        <ele>20.324951</ele>
        <time>2010-09-16T14:03:07Z</time>
      </trkpt>
      <trkpt lat="44.91446" lon="-0.43331">
        <ele>18.883057</ele>
        <time>2010-09-16T14:05:42Z</time>
      </trkpt>
      <trkpt lat="44.91564" lon="-0.43211">
        <ele>20.324951</ele>
        <time>2010-09-16T14:07:47Z</time>
      </trkpt>
      <trkpt lat="44.91601" lon="-0.4317">
        <ele>21.286377</ele>
        <time>2010-09-16T14:08:27Z</time>
      </trkpt>
      <trkpt lat="44.91614" lon="-0.43126">
        <ele>21.286377</ele>
        <time>2010-09-16T14:08:57Z</time>
      </trkpt>
      <trkpt lat="44.9168" lon="-0.43077">
        <ele>20.805664</ele>
        <time>2010-09-16T14:10:00Z</time>
      </trkpt>
      <trkpt lat="44.91716" lon="-0.43029">
        <ele>22.728271</ele>
        <time>2010-09-16T14:10:49Z</time>
      </trkpt>
      <trkpt lat="44.91753" lon="-0.43">
        <ele>21.286377</ele>
        <time>2010-09-16T14:11:28Z</time>
      </trkpt>
      <trkpt lat="44.91756" lon="-0.42994">
        <ele>21.766968</ele>
        <time>2010-09-16T14:11:40Z</time>
      </trkpt>
      <trkpt lat="44.91756" lon="-0.42983">
        <ele>21.766968</ele>
        <time>2010-09-16T14:11:52Z</time>
      </trkpt>
      <trkpt lat="44.91769" lon="-0.42943">
        <ele>22.728271</ele>
        <time>2010-09-16T14:12:24Z</time>
      </trkpt>
      <trkpt lat="44.9179" lon="-0.42927">
        <ele>25.612305</ele>
        <time>2010-09-16T14:12:52Z</time>
      </trkpt>
      <trkpt lat="44.91791" lon="-0.42925">
        <ele>22.728271</ele>
        <time>2010-09-16T14:13:58Z</time>
      </trkpt>
    </trkseg>
  </trk>
</gpx>